Time;durP1;ratioP1;P1;durP2;ratioP2;P2;SDS_P1;SDS_P2;PMS_P1;PMS_P2;Temp;Humidity;BMP_temperature;BMP_pressure;BME280_temperature;BME280_humidity;BME280_pressure;Samples;Min_cycle;Max_cycle;Signal;HPM_P1;HPM_P2
2023/07/22 00:00:56;;;;;;;7.40;2.90;;;14.90;98.00;;;;;;5013162;28;20483;-68
2023/07/22 00:03:23;;;;;;;3.30;2.43;;;14.80;98.00;;;;;;5013380;28;20455;-68
2023/07/22 00:06:02;;;;;;;4.20;2.80;;;14.80;98.00;;;;;;5013233;28;20470;-68
2023/07/22 00:08:29;;;;;;;4.70;3.00;;;14.70;98.00;;;;;;5013313;28;20455;-68
2023/07/22 00:10:57;;;;;;;3.67;2.47;;;14.70;98.00;;;;;;5013399;28;20459;-68
2023/07/22 00:13:26;;;;;;;6.10;2.40;;;14.70;98.00;;;;;;4995893;28;20451;-68
2023/07/22 00:15:55;;;;;;;5.37;2.60;;;14.70;98.00;;;;;;5013163;28;20509;-68
2023/07/22 00:18:23;;;;;;;4.13;2.77;;;14.70;98.00;;;;;;5013232;28;20463;-68
2023/07/22 00:20:51;;;;;;;6.03;2.63;;;14.80;98.00;;;;;;5013188;28;20459;-68
2023/07/22 00:23:19;;;;;;;2.87;2.10;;;14.70;98.00;;;;;;5013149;28;20463;-68
2023/07/22 00:25:46;;;;;;;5.17;2.97;;;14.80;98.00;;;;;;5013229;28;20485;-68
2023/07/22 00:28:14;;;;;;;4.30;2.50;;;15.00;98.00;;;;;;5012939;28;20866;-68
2023/07/22 00:30:41;;;;;;;4.23;2.60;;;15.00;98.00;;;;;;5012785;28;20468;-68
2023/07/22 00:33:10;;;;;;;4.23;2.50;;;14.90;98.00;;;;;;5012791;28;20826;-68
2023/07/22 00:35:37;;;;;;;4.03;2.83;;;15.00;98.00;;;;;;5012779;28;20459;-68
2023/07/22 00:38:04;;;;;;;4.20;2.60;;;15.00;98.00;;;;;;5012709;28;21012;-68
2023/07/22 00:40:31;;;;;;;4.87;2.67;;;15.10;98.00;;;;;;4995200;28;20546;-68
2023/07/22 00:42:59;;;;;;;3.50;2.53;;;15.10;98.00;;;;;;5012606;28;20574;-68
2023/07/22 00:45:26;;;;;;;2.80;2.07;;;15.00;98.00;;;;;;5012451;28;20498;-68
2023/07/22 00:47:54;;;;;;;3.97;2.50;;;14.90;98.00;;;;;;5012809;28;20938;-68
2023/07/22 00:50:24;;;;;;;2.93;2.30;;;14.90;98.00;;;;;;5012706;28;20473;-68
2023/07/22 00:52:51;;;;;;;4.37;2.67;;;14.90;98.00;;;;;;5011923;28;20482;-68
2023/07/22 00:55:18;;;;;;;7.57;2.80;;;15.00;98.00;;;;;;5012105;28;20447;-68
2023/07/22 00:57:45;;;;;;;2.97;2.20;;;15.00;98.00;;;;;;5011984;28;20455;-68
2023/07/22 01:00:16;;;;;;;4.17;2.50;;;15.00;98.00;;;;;;5012136;28;20455;-68
2023/07/22 01:02:43;;;;;;;3.83;2.43;;;15.00;98.00;;;;;;5012180;28;20993;-68
2023/07/22 01:05:12;;;;;;;3.03;2.30;;;14.90;98.00;;;;;;5012226;28;20539;-68
2023/07/22 01:07:41;;;;;;;3.23;2.37;;;14.80;98.00;;;;;;4995159;28;20499;-68
2023/07/22 01:10:09;;;;;;;4.20;2.40;;;14.70;98.00;;;;;;5012177;28;20506;-68
2023/07/22 01:12:36;;;;;;;3.93;2.80;;;14.70;98.00;;;;;;5012246;28;20542;-68
2023/07/22 01:15:07;;;;;;;3.10;2.23;;;14.70;98.00;;;;;;5012195;28;20817;-68
2023/07/22 01:17:35;;;;;;;3.90;2.30;;;14.70;98.00;;;;;;4995330;28;20463;-68
2023/07/22 01:20:04;;;;;;;4.20;2.33;;;14.60;98.00;;;;;;5011896;28;21018;-68
2023/07/22 01:22:32;;;;;;;5.63;2.47;;;14.50;98.00;;;;;;5011901;28;20921;-68
2023/07/22 01:25:00;;;;;;;3.63;2.53;;;14.40;98.00;;;;;;4994821;28;20464;-68
2023/07/22 01:27:28;;;;;;;3.43;2.60;;;14.30;98.00;;;;;;5011734;28;20460;-68
2023/07/22 01:29:55;;;;;;;3.20;2.33;;;14.40;98.00;;;;;;5011533;28;20474;-68
2023/07/22 01:32:22;;;;;;;6.63;2.77;;;14.30;98.00;;;;;;4994472;28;20454;-68
2023/07/22 01:34:50;;;;;;;2.73;2.20;;;14.10;98.00;;;;;;5011836;28;20462;-68
2023/07/22 01:37:17;;;;;;;3.33;2.10;;;14.20;98.00;;;;;;5011912;28;20455;-68
2023/07/22 01:39:46;;;;;;;3.67;2.30;;;14.20;98.00;;;;;;5010898;28;20459;-68
2023/07/22 01:42:15;;;;;;;3.60;2.20;;;14.20;98.00;;;;;;4994047;28;20487;-68
2023/07/22 01:44:42;;;;;;;4.80;2.80;;;14.10;98.00;;;;;;5011487;28;20463;-68
2023/07/22 01:47:09;;;;;;;4.30;2.40;;;14.00;98.00;;;;;;4994324;28;20454;-68
2023/07/22 01:49:36;;;;;;;4.40;2.43;;;14.00;98.00;;;;;;5011458;28;20478;-68
2023/07/22 01:52:05;;;;;;;3.60;2.40;;;14.00;98.00;;;;;;5012059;28;20519;-68
2023/07/22 01:54:39;;;;;;;2.43;2.20;;;14.00;98.00;;;;;;4993981;28;20452;-68
2023/07/22 01:57:06;;;;;;;3.50;2.23;;;13.90;98.00;;;;;;5011533;28;20458;-68
2023/07/22 01:59:35;;;;;;;4.10;2.50;;;14.00;98.00;;;;;;5011488;28;20474;-68
2023/07/22 02:02:02;;;;;;;5.47;2.70;;;14.20;98.00;;;;;;5011881;28;20494;-68
2023/07/22 02:04:29;;;;;;;2.90;2.13;;;14.40;98.00;;;;;;5011308;28;20809;-68
2023/07/22 02:06:56;;;;;;;5.80;2.37;;;14.40;98.00;;;;;;5011683;28;20529;-68
2023/07/22 02:09:23;;;;;;;4.20;2.47;;;14.30;98.00;;;;;;5011502;28;20455;-68
2023/07/22 02:11:51;;;;;;;6.13;2.37;;;14.30;98.00;;;;;;5011561;28;20458;-68
2023/07/22 02:14:18;;;;;;;5.10;2.30;;;14.10;98.00;;;;;;5011228;28;20455;-68
2023/07/22 02:16:48;;;;;;;3.17;2.03;;;14.00;98.00;;;;;;5011301;28;20466;-68
2023/07/22 02:19:15;;;;;;;4.07;2.50;;;14.00;98.00;;;;;;5011243;28;20466;-68
2023/07/22 02:21:43;;;;;;;5.27;2.53;;;13.90;98.00;;;;;;5011582;28;20491;-68
2023/07/22 02:24:10;;;;;;;3.57;2.40;;;13.80;98.00;;;;;;5011141;28;20551;-68
2023/07/22 02:26:38;;;;;;;3.60;2.47;;;13.70;98.00;;;;;;4993835;28;20456;-68
2023/07/22 02:29:07;;;;;;;3.83;2.40;;;13.80;98.00;;;;;;4993831;28;21007;-68
2023/07/22 02:31:34;;;;;;;3.67;2.27;;;13.70;98.00;;;;;;5010982;28;20558;-68
2023/07/22 02:34:05;;;;;;;2.90;2.10;;;13.90;98.00;;;;;;5010954;28;20469;-68
2023/07/22 02:36:33;;;;;;;3.57;2.50;;;13.90;98.00;;;;;;4993934;28;20820;-68
2023/07/22 02:39:00;;;;;;;4.50;2.70;;;14.00;98.00;;;;;;4993948;28;20451;-68
2023/07/22 02:41:27;;;;;;;3.60;2.17;;;13.90;98.00;;;;;;5010965;28;20456;-68
2023/07/22 02:43:54;;;;;;;4.00;2.60;;;13.90;98.00;;;;;;5011152;28;20459;-68
2023/07/22 02:46:21;;;;;;;2.80;2.17;;;13.90;98.00;;;;;;5011272;28;20463;-68
2023/07/22 02:48:48;;;;;;;4.00;2.73;;;13.80;98.00;;;;;;5010905;28;20455;-68
2023/07/22 02:51:17;;;;;;;4.07;2.47;;;13.70;98.00;;;;;;5011138;28;20501;-68
2023/07/22 02:53:46;;;;;;;3.60;2.60;;;13.70;98.00;;;;;;5010856;28;20482;-68
2023/07/22 02:56:14;;;;;;;5.20;2.97;;;13.70;98.00;;;;;;5011018;28;20463;-68
2023/07/22 02:58:43;;;;;;;4.10;2.60;;;13.70;98.00;;;;;;5010214;28;20448;-68
2023/07/22 03:01:10;;;;;;;4.37;2.23;;;13.70;98.00;;;;;;5010981;28;20455;-68
2023/07/22 03:03:39;;;;;;;3.60;2.37;;;13.70;98.00;;;;;;5010983;28;20549;-68
2023/07/22 03:06:09;;;;;;;3.60;2.50;;;13.60;98.00;;;;;;5011126;28;20576;-68
2023/07/22 03:08:37;;;;;;;4.70;2.70;;;13.50;98.00;;;;;;5010901;28;20452;-68
2023/07/22 03:11:04;;;;;;;3.90;2.47;;;13.40;98.00;;;;;;5010860;28;20467;-68
2023/07/22 03:13:34;;;;;;;3.10;2.40;;;13.20;98.00;;;;;;5026275;28;20486;-68
2023/07/22 03:16:03;;;;;;;4.60;2.53;;;13.20;98.00;;;;;;5013596;28;20515;-68
2023/07/22 03:18:31;;;;;;;4.80;2.63;;;13.20;98.00;;;;;;5033716;28;20988;-68
2023/07/22 03:20:58;;;;;;;4.17;2.40;;;13.30;98.00;;;;;;5033966;28;20461;-68
2023/07/22 03:23:25;;;;;;;4.07;2.53;;;13.40;98.00;;;;;;5033813;28;20485;-68
2023/07/22 03:25:54;;;;;;;4.20;2.37;;;13.50;98.00;;;;;;5033776;28;20464;-68
2023/07/22 03:28:21;;;;;;;3.93;2.50;;;13.50;98.00;;;;;;5033805;28;20471;-68
2023/07/22 03:30:48;;;;;;;4.70;2.60;;;13.40;98.00;;;;;;5033694;28;20469;-68
2023/07/22 03:33:15;;;;;;;3.90;2.57;;;13.60;98.00;;;;;;5016522;28;20465;-68
2023/07/22 03:35:42;;;;;;;4.23;2.50;;;13.50;98.00;;;;;;5033671;28;20525;-68
2023/07/22 03:38:09;;;;;;;3.77;2.47;;;13.40;98.00;;;;;;5033647;28;20468;-68
2023/07/22 03:40:37;;;;;;;4.07;2.27;;;13.30;98.00;;;;;;5016134;28;20938;-68
2023/07/22 03:43:06;;;;;;;3.30;2.30;;;13.30;98.00;;;;;;5033820;28;20573;-68
2023/07/22 03:45:33;;;;;;;6.43;2.80;;;13.30;98.00;;;;;;5033697;28;20539;-68
2023/07/22 03:48:02;;;;;;;3.47;2.53;;;13.30;98.00;;;;;;5033625;28;20518;-68
2023/07/22 03:50:29;;;;;;;3.30;2.37;;;13.10;98.00;;;;;;5031992;28;20536;-68
2023/07/22 03:52:58;;;;;;;4.47;2.30;;;13.10;98.00;;;;;;5033452;28;20820;-68
2023/07/22 03:55:26;;;;;;;4.60;2.80;;;13.30;98.00;;;;;;5033461;28;20463;-68
2023/07/22 03:57:53;;;;;;;4.57;2.30;;;13.30;98.00;;;;;;5015965;28;20469;-68
2023/07/22 04:00:22;;;;;;;4.73;2.47;;;13.30;98.00;;;;;;5033495;28;20812;-68
2023/07/22 04:02:49;;;;;;;4.77;2.53;;;13.20;98.00;;;;;;5033262;28;20581;-68
2023/07/22 04:05:16;;;;;;;4.33;2.50;;;13.10;98.00;;;;;;5033127;28;20466;-68
2023/07/22 04:07:45;;;;;;;5.43;2.73;;;13.20;98.00;;;;;;5032639;28;20507;-68
2023/07/22 04:10:12;;;;;;;3.90;2.23;;;13.20;98.00;;;;;;5033003;28;20810;-68
2023/07/22 04:12:39;;;;;;;3.83;2.40;;;13.30;98.00;;;;;;5033211;28;20509;-68
2023/07/22 04:15:08;;;;;;;3.73;2.60;;;13.40;98.00;;;;;;5032856;28;20871;-68
2023/07/22 04:17:37;;;;;;;4.67;2.40;;;13.60;98.00;;;;;;5033491;28;20445;-68
2023/07/22 04:20:05;;;;;;;3.57;2.43;;;13.80;98.00;;;;;;5032825;28;20463;-68
2023/07/22 04:22:32;;;;;;;4.43;2.23;;;13.80;98.00;;;;;;5032995;28;21019;-68
2023/07/22 04:24:59;;;;;;;3.07;1.90;;;13.70;98.00;;;;;;5015249;28;20515;-68
2023/07/22 04:27:27;;;;;;;4.10;2.70;;;13.60;98.00;;;;;;5032361;28;20458;-68
2023/07/22 04:29:54;;;;;;;2.97;2.23;;;13.60;98.00;;;;;;5032596;28;20479;-68
2023/07/22 04:32:23;;;;;;;3.50;2.37;;;13.50;98.00;;;;;;5015180;28;20464;-68
2023/07/22 04:34:52;;;;;;;4.30;2.57;;;13.50;98.00;;;;;;5015089;28;20497;-68
2023/07/22 04:37:19;;;;;;;3.47;2.27;;;13.50;98.00;;;;;;5032639;28;20464;-68
2023/07/22 04:39:49;;;;;;;2.97;2.30;;;13.30;98.00;;;;;;5032443;28;20460;-68
2023/07/22 04:42:16;;;;;;;3.40;2.57;;;13.30;98.00;;;;;;5032491;28;20643;-68
2023/07/22 04:44:44;;;;;;;2.90;2.37;;;13.40;98.00;;;;;;5032418;28;20463;-68
2023/07/22 04:47:11;;;;;;;4.87;2.50;;;13.40;98.00;;;;;;5032475;28;20467;-68
2023/07/22 04:49:39;;;;;;;2.60;2.13;;;13.40;98.00;;;;;;5032698;28;20932;-68
2023/07/22 04:52:09;;;;;;;4.93;2.63;;;13.30;98.00;;;;;;5014465;28;20457;-68
2023/07/22 04:54:36;;;;;;;3.17;2.30;;;13.40;98.00;;;;;;5032269;28;20481;-68
2023/07/22 04:57:04;;;;;;;3.23;2.40;;;13.50;98.00;;;;;;4998654;28;20456;-68
2023/07/22 04:59:31;;;;;;;3.90;2.50;;;13.50;98.00;;;;;;5014569;28;20468;-68
2023/07/22 05:01:58;;;;;;;3.60;2.70;;;13.50;98.00;;;;;;5032228;28;20471;-68
2023/07/22 05:04:25;;;;;;;6.40;3.03;;;13.60;98.00;;;;;;5014241;28;20496;-68
2023/07/22 05:06:52;;;;;;;4.50;2.87;;;13.70;98.00;;;;;;5031874;28;21002;-68
2023/07/22 05:09:21;;;;;;;6.00;2.80;;;13.70;98.00;;;;;;5031923;28;20463;-68
2023/07/22 05:11:51;;;;;;;4.50;2.77;;;13.80;98.00;;;;;;5031699;28;20453;-68
2023/07/22 05:14:18;;;;;;;5.57;2.70;;;13.90;98.00;;;;;;5031960;28;21052;-68
2023/07/22 05:16:45;;;;;;;6.87;2.77;;;14.10;98.00;;;;;;5031764;28;20461;-68
2023/07/22 05:19:12;;;;;;;3.07;2.40;;;14.30;98.00;;;;;;5031857;28;20464;-68
2023/07/22 05:21:39;;;;;;;3.73;2.10;;;14.30;98.00;;;;;;5031643;28;20457;-68
2023/07/22 05:24:06;;;;;;;4.57;2.83;;;14.30;98.00;;;;;;5031602;28;20547;-68
2023/07/22 05:26:35;;;;;;;4.67;2.77;;;14.30;98.00;;;;;;5031491;28;20458;-68
2023/07/22 05:29:02;;;;;;;3.70;2.43;;;14.30;98.00;;;;;;5031212;28;20828;-68
2023/07/22 05:31:29;;;;;;;3.00;2.33;;;14.50;98.00;;;;;;5031430;28;20466;-68
2023/07/22 05:33:56;;;;;;;5.20;2.73;;;14.60;98.00;;;;;;5031655;28;20799;-68
2023/07/22 05:36:23;;;;;;;4.03;2.80;;;14.80;98.00;;;;;;5014068;28;20538;-68
2023/07/22 05:38:50;;;;;;;4.73;2.90;;;14.80;98.00;;;;;;5031262;28;20458;-68
2023/07/22 05:41:18;;;;;;;4.03;2.53;;;14.70;98.00;;;;;;5031085;28;20556;-68
2023/07/22 05:43:46;;;;;;;3.87;2.80;;;14.60;98.00;;;;;;5031525;28;20564;-68
2023/07/22 05:46:14;;;;;;;4.40;2.90;;;14.50;98.00;;;;;;5031586;28;20862;-68
2023/07/22 05:48:41;;;;;;;3.17;2.37;;;14.40;98.00;;;;;;5031379;28;20864;-68
2023/07/22 05:51:09;;;;;;;4.90;2.40;;;14.50;98.00;;;;;;5031505;28;20959;-68
2023/07/22 05:53:36;;;;;;;4.67;2.90;;;14.60;98.00;;;;;;5031129;28;20470;-68
2023/07/22 05:56:04;;;;;;;3.53;2.10;;;14.70;98.00;;;;;;5031228;28;20974;-68
2023/07/22 05:58:31;;;;;;;4.57;2.70;;;14.70;98.00;;;;;;5031453;28;20469;-69
2023/07/22 06:00:59;;;;;;;5.53;2.90;;;14.80;98.00;;;;;;5031119;28;20456;-68
2023/07/22 06:03:26;;;;;;;5.60;3.07;;;14.80;98.00;;;;;;5031197;28;20478;-68
2023/07/22 06:05:53;;;;;;;3.37;2.50;;;14.80;98.00;;;;;;5013470;28;20464;-68
2023/07/22 06:08:20;;;;;;;4.93;2.60;;;14.90;98.00;;;;;;5030988;28;20456;-68
2023/07/22 06:10:48;;;;;;;4.80;2.83;;;14.90;98.00;;;;;;5031127;28;20459;-68
2023/07/22 06:13:15;;;;;;;4.63;2.77;;;15.10;98.00;;;;;;5029568;28;20952;-64
2023/07/22 06:15:43;;;;;;;4.87;2.97;;;;;;;;;;4993874;28;21015;-63
2023/07/22 06:18:11;;;;;;;4.30;2.87;;;15.50;98.00;;;;;;5011336;28;21016;-64
2023/07/22 06:20:39;;;;;;;4.57;2.90;;;15.50;98.00;;;;;;5011160;28;20462;-63
2023/07/22 06:23:06;;;;;;;5.30;3.10;;;15.60;98.00;;;;;;5011301;28;20597;-63
2023/07/22 06:25:33;;;;;;;4.03;2.63;;;15.70;98.00;;;;;;5011199;28;20903;-63
2023/07/22 06:28:00;;;;;;;3.90;2.70;;;15.80;98.00;;;;;;4994120;28;20469;-63
2023/07/22 06:30:28;;;;;;;3.80;2.70;;;15.90;98.00;;;;;;5011301;28;20798;-63
2023/07/22 06:32:55;;;;;;;4.53;2.50;;;16.00;98.00;;;;;;4978053;28;20498;-63
2023/07/22 06:35:24;;;;;;;4.97;2.77;;;16.10;98.00;;;;;;5011009;28;20463;-63
2023/07/22 06:37:51;;;;;;;3.40;2.70;;;16.30;98.00;;;;;;5011456;28;20470;-64
2023/07/22 06:40:18;;;;;;;3.60;2.73;;;16.30;98.00;;;;;;5011302;28;20627;-63
2023/07/22 06:42:45;;;;;;;3.67;2.63;;;16.40;98.00;;;;;;5011195;28;20828;-63
2023/07/22 06:45:12;;;;;;;4.30;2.83;;;16.60;98.00;;;;;;5010870;28;20454;-63
2023/07/22 06:47:42;;;;;;;4.23;2.43;;;16.70;98.00;;;;;;4993678;28;20466;-64
2023/07/22 06:50:10;;;;;;;5.70;2.70;;;16.80;98.00;;;;;;4993347;28;20478;-63
2023/07/22 06:52:39;;;;;;;4.80;2.27;;;16.90;98.00;;;;;;5014762;28;20463;-63
2023/07/22 06:55:07;;;;;;;3.50;2.37;;;17.00;98.00;;;;;;4997033;28;20462;-63
2023/07/22 06:57:35;;;;;;;3.60;2.47;;;17.00;98.00;;;;;;5014788;28;20459;-63
2023/07/22 07:00:02;;;;;;;4.17;2.87;;;17.20;98.00;;;;;;5014789;28;20455;-63
2023/07/22 07:02:29;;;;;;;3.00;2.40;;;17.30;98.00;;;;;;5014778;28;20525;-63
2023/07/22 07:04:56;;;;;;;6.63;3.20;;;17.30;98.00;;;;;;5014627;28;20487;-63
2023/07/22 07:07:23;;;;;;;3.40;2.37;;;17.40;98.00;;;;;;5014543;28;20812;-63
2023/07/22 07:09:52;;;;;;;4.13;2.53;;;17.50;98.00;;;;;;5014684;28;20484;-63
2023/07/22 07:12:19;;;;;;;3.10;2.50;;;17.70;98.00;;;;;;5014376;28;20456;-63
2023/07/22 07:14:46;;;;;;;4.17;2.60;;;17.80;98.00;;;;;;5014349;28;20734;-63
2023/07/22 07:17:13;;;;;;;4.60;2.87;;;17.90;98.00;;;;;;5014187;28;20491;-64
2023/07/22 07:19:40;;;;;;;3.40;2.53;;;18.10;98.00;;;;;;5014131;28;20474;-64
2023/07/22 07:22:07;;;;;;;4.43;3.00;;;18.20;98.00;;;;;;5014156;28;20455;-64
2023/07/22 07:24:34;;;;;;;10.20;3.37;;;18.30;98.00;;;;;;5014126;28;20486;-64
2023/07/22 07:27:04;;;;;;;5.07;2.10;;;;;;;;;;4996909;28;20459;-64
2023/07/22 07:29:31;;;;;;;6.67;2.40;;;18.50;98.00;;;;;;5014218;28;20471;-64
2023/07/22 07:32:01;;;;;;;6.30;2.40;;;18.60;98.00;;;;;;4996939;28;20943;-64
2023/07/22 07:34:29;;;;;;;3.20;2.33;;;18.70;98.00;;;;;;4996204;28;20951;-64
2023/07/22 07:36:56;;;;;;;2.37;1.90;;;18.90;98.00;;;;;;4996278;28;20458;-63
2023/07/22 07:39:25;;;;;;;8.40;2.53;;;19.30;98.00;;;;;;5013994;28;20455;-63
2023/07/22 07:41:52;;;;;;;2.90;2.27;;;19.40;98.00;;;;;;4997416;28;20530;-64
2023/07/22 07:44:21;;;;;;;4.97;2.80;;;19.60;98.00;;;;;;5015742;28;20835;-64
2023/07/22 07:46:48;;;;;;;3.40;2.50;;;19.70;98.00;;;;;;5034472;28;20458;-63
2023/07/22 07:49:15;;;;;;;3.57;2.60;;;19.70;98.00;;;;;;5033482;28;21036;-64
2023/07/22 07:51:42;;;;;;;4.17;2.67;;;19.70;98.00;;;;;;5016598;28;20477;-64
2023/07/22 07:54:09;;;;;;;3.40;2.50;;;19.80;98.00;;;;;;5034528;28;20482;-64
2023/07/22 07:56:36;;;;;;;6.13;2.50;;;19.90;98.00;;;;;;5034145;28;20549;-64
2023/07/22 07:59:05;;;;;;;3.63;2.50;;;20.00;98.00;;;;;;5033158;28;21353;-64
2023/07/22 08:01:35;;;;;;;3.77;2.63;;;20.10;98.00;;;;;;5015334;28;20462;-64
2023/07/22 08:04:02;;;;;;;5.00;2.60;;;20.20;98.00;;;;;;5032641;28;20483;-63
2023/07/22 08:06:29;;;;;;;3.23;2.37;;;20.20;98.00;;;;;;5033153;28;20521;-64
2023/07/22 08:08:56;;;;;;;7.10;2.50;;;20.30;98.00;;;;;;5033085;28;20454;-64
2023/07/22 08:11:23;;;;;;;3.53;2.47;;;20.30;98.00;;;;;;5033073;28;20938;-65
2023/07/22 08:13:51;;;;;;;3.50;2.50;;;20.40;98.00;;;;;;5015611;28;20459;-64
2023/07/22 08:16:18;;;;;;;3.40;2.30;;;20.60;98.00;;;;;;5033149;28;20553;-64
2023/07/22 08:18:47;;;;;;;4.40;2.73;;;20.80;98.00;;;;;;5033073;28;20459;-64
2023/07/22 08:21:16;;;;;;;2.37;2.00;;;20.90;98.00;;;;;;5032858;28;20554;-64
2023/07/22 08:23:46;;;;;;;3.60;2.53;;;20.90;98.00;;;;;;5032759;28;20475;-64
2023/07/22 08:26:13;;;;;;;3.00;2.10;;;20.90;98.00;;;;;;5032912;28;20462;-64
2023/07/22 08:28:41;;;;;;;3.40;2.60;;;21.00;98.00;;;;;;5032869;28;20894;-64
2023/07/22 08:31:08;;;;;;;3.03;2.10;;;21.20;98.00;;;;;;5033157;28;20454;-64
2023/07/22 08:33:35;;;;;;;3.17;2.37;;;21.30;98.00;;;;;;5032597;28;20961;-64
2023/07/22 08:36:03;;;;;;;3.73;1.93;;;21.40;98.00;;;;;;5032655;28;20462;-64
2023/07/22 08:38:33;;;;;;;3.33;2.43;;;21.40;98.00;;;;;;5032648;28;20455;-64
2023/07/22 08:41:00;;;;;;;4.03;2.53;;;21.40;98.00;;;;;;5032473;28;20504;-64
2023/07/22 08:43:29;;;;;;;3.53;2.43;;;21.50;98.00;;;;;;5032445;28;20463;-64
2023/07/22 08:46:00;;;;;;;4.40;2.40;;;21.70;98.00;;;;;;5032739;28;20820;-64
2023/07/22 08:48:30;;;;;;;4.20;2.57;;;21.90;98.00;;;;;;5032351;28;21004;-64
2023/07/22 08:51:03;;;;;;;4.10;2.40;;;22.00;98.00;;;;;;5032247;28;20463;-64
2023/07/22 08:53:33;;;;;;;2.77;2.30;;;22.20;98.00;;;;;;4998862;28;20463;-64
2023/07/22 08:56:00;;;;;;;4.23;2.80;;;22.40;98.00;;;;;;5032185;28;20459;-64
2023/07/22 08:58:28;;;;;;;3.37;2.50;;;22.60;98.00;;;;;;5032189;28;20525;-64
2023/07/22 09:00:56;;;;;;;3.33;2.33;;;22.50;98.00;;;;;;5032231;28;20457;-64
2023/07/22 09:03:24;;;;;;;2.53;2.20;;;22.60;98.00;;;;;;5032473;28;20462;-65
2023/07/22 09:05:51;;;;;;;3.40;2.30;;;22.80;97.80;;;;;;5032213;28;20458;-64
2023/07/22 09:08:19;;;;;;;3.90;2.73;;;22.80;98.00;;;;;;5032177;28;20480;-64
2023/07/22 09:10:47;;;;;;;4.37;2.67;;;22.90;96.70;;;;;;5031857;28;20462;-64
2023/07/22 09:13:15;;;;;;;3.03;2.40;;;23.10;97.00;;;;;;5032029;28;20949;-64
2023/07/22 09:15:42;;;;;;;2.80;2.23;;;23.30;97.50;;;;;;5030940;28;20845;-64
2023/07/22 09:18:09;;;;;;;4.23;2.50;;;23.40;96.90;;;;;;5031860;28;20462;-65
2023/07/22 09:20:36;;;;;;;2.90;2.03;;;23.50;92.00;;;;;;5031734;28;20816;-65
2023/07/22 09:23:03;;;;;;;3.43;2.20;;;23.60;94.20;;;;;;5032104;28;20869;-64
2023/07/22 09:25:30;;;;;;;3.70;2.10;;;23.80;93.30;;;;;;5031909;28;20742;-64
2023/07/22 09:28:00;;;;;;;3.07;2.20;;;23.80;90.80;;;;;;5032037;28;20453;-65
2023/07/22 09:30:28;;;;;;;3.67;2.40;;;23.80;90.50;;;;;;5031628;28;20455;-65
2023/07/22 09:32:57;;;;;;;2.47;2.17;;;23.90;91.10;;;;;;5031764;28;20458;-66
2023/07/22 09:35:25;;;;;;;4.00;2.67;;;24.00;87.90;;;;;;5031544;28;20463;-64
2023/07/22 09:37:54;;;;;;;3.73;2.50;;;24.10;89.40;;;;;;5013976;28;20987;-65
2023/07/22 09:40:23;;;;;;;3.50;2.70;;;24.20;90.30;;;;;;5031401;28;20884;-64
2023/07/22 09:42:52;;;;;;;5.23;2.60;;;24.40;90.80;;;;;;5031655;28;20459;-64
2023/07/22 09:45:22;;;;;;;3.90;2.50;;;24.60;89.60;;;;;;5031175;28;20501;-65
2023/07/22 09:47:52;;;;;;;3.13;2.30;;;24.80;89.40;;;;;;5031400;28;20965;-66
2023/07/22 09:50:21;;;;;;;3.30;2.30;;;24.90;89.00;;;;;;5031448;28;20867;-66
2023/07/22 09:52:50;;;;;;;3.43;2.57;;;24.90;90.10;;;;;;5031365;28;20894;-64
2023/07/22 09:55:19;;;;;;;4.47;2.53;;;25.00;87.30;;;;;;5031294;28;20513;-64
2023/07/22 09:57:47;;;;;;;5.60;2.57;;;24.80;88.20;;;;;;5031200;28;20459;-64
2023/07/22 10:00:18;;;;;;;2.47;2.20;;;24.60;87.90;;;;;;5031202;28;20544;-64
2023/07/22 10:02:49;;;;;;;6.00;2.50;;;24.40;87.50;;;;;;5031283;28;20512;-64
2023/07/22 10:05:17;;;;;;;2.90;2.13;;;24.20;89.60;;;;;;5031183;28;20509;-64
2023/07/22 10:07:46;;;;;;;3.60;2.50;;;24.20;89.50;;;;;;5031186;28;20816;-65
2023/07/22 10:10:15;;;;;;;4.80;2.50;;;24.00;89.90;;;;;;5031103;28;20490;-63
2023/07/22 10:12:43;;;;;;;7.27;3.07;;;23.80;91.50;;;;;;5031188;28;20458;-64
2023/07/22 10:15:12;;;;;;;4.73;2.60;;;23.70;91.70;;;;;;5031144;28;20454;-64
2023/07/22 10:17:39;;;;;;;3.37;2.63;;;23.70;91.90;;;;;;5031122;28;20493;-64
2023/07/22 10:20:15;;;;;;;3.90;2.50;;;23.70;93.90;;;;;;5031379;28;20504;-64
2023/07/22 10:22:44;;;;;;;3.97;2.63;;;23.70;92.80;;;;;;5031091;28;20458;-64
2023/07/22 10:25:13;;;;;;;3.20;2.20;;;23.80;92.80;;;;;;5031107;28;20577;-64
2023/07/22 10:27:41;;;;;;;3.77;2.17;;;23.80;92.50;;;;;;5034935;28;20554;-64
2023/07/22 10:30:10;;;;;;;3.20;2.47;;;23.90;90.70;;;;;;5035004;28;20474;-63
2023/07/22 10:32:38;;;;;;;3.53;2.30;;;24.00;90.40;;;;;;5034783;28;20486;-64
2023/07/22 10:35:09;;;;;;;3.40;2.40;;;24.20;90.00;;;;;;5035060;28;20454;-64
2023/07/22 10:37:38;;;;;;;2.63;2.30;;;24.50;90.00;;;;;;5034806;28;20517;-63
2023/07/22 10:40:19;;;;;;;2.80;2.03;;;24.90;89.30;;;;;;5034888;28;20458;-63
2023/07/22 10:42:54;;;;;;;3.10;2.30;;;25.30;86.20;;;;;;5034764;28;20545;-63
2023/07/22 10:45:28;;;;;;;3.10;2.43;;;25.70;86.80;;;;;;5034506;28;20585;-64
2023/07/22 10:48:07;;;;;;;3.67;2.23;;;25.80;85.40;;;;;;5034625;28;20497;-64
2023/07/22 10:50:42;;;;;;;3.60;2.40;;;25.70;85.30;;;;;;5016846;28;20489;-64
2023/07/22 10:53:21;;;;;;;3.37;2.40;;;25.80;83.80;;;;;;5034645;28;20461;-64
2023/07/22 10:56:12;;;;;;;2.63;2.13;;;26.20;81.90;;;;;;5018278;28;20450;-63
2023/07/22 10:59:00;;;;;;;3.10;2.23;;;26.50;81.30;;;;;;5034555;28;20454;-64
2023/07/22 11:01:35;;;;;;;3.80;2.63;;;26.40;80.80;;;;;;5034417;28;20537;-63
2023/07/22 11:04:10;;;;;;;3.90;2.60;;;26.50;84.20;;;;;;5034669;28;20466;-64
2023/07/22 11:06:38;;;;;;;3.50;2.60;;;26.60;83.20;;;;;;5034298;28;20464;-63
2023/07/22 11:09:07;;;;;;;2.97;2.27;;;26.50;83.50;;;;;;5034714;28;20458;-64
2023/07/22 11:11:39;;;;;;;4.17;2.43;;;26.20;83.70;;;;;;5034302;28;20462;-64
2023/07/22 11:14:16;;;;;;;2.60;2.13;;;25.90;84.20;;;;;;5034222;28;20549;-64
2023/07/22 11:16:44;;;;;;;3.57;2.20;;;25.80;84.40;;;;;;5034106;28;20944;-64
2023/07/22 11:19:11;;;;;;;3.30;2.57;;;25.90;85.00;;;;;;5034126;28;20451;-64
2023/07/22 11:21:38;;;;;;;4.07;2.50;;;26.30;82.90;;;;;;5033914;28;20458;-64
2023/07/22 11:24:07;;;;;;;3.43;2.13;;;26.50;81.70;;;;;;5034037;28;20458;-64
2023/07/22 11:26:34;;;;;;;4.83;2.30;;;26.80;81.60;;;;;;5034133;28;20496;-63
2023/07/22 11:29:02;;;;;;;2.93;2.30;;;26.90;80.80;;;;;;5033663;28;20471;-64
2023/07/22 11:31:33;;;;;;;2.50;2.00;;;27.10;79.80;;;;;;5033808;28;20459;-64
2023/07/22 11:34:00;;;;;;;2.47;2.17;;;27.20;79.60;;;;;;5034199;28;20455;-64
2023/07/22 11:36:28;;;;;;;3.13;2.37;;;27.00;78.40;;;;;;5033287;28;20979;-64
2023/07/22 11:39:02;;;;;;;2.97;2.30;;;26.70;79.50;;;;;;5032739;28;20459;-63
2023/07/22 11:41:30;;;;;;;3.67;2.60;;;26.30;77.20;;;;;;5033669;28;20459;-64
2023/07/22 11:43:58;;;;;;;3.80;2.20;;;26.00;80.20;;;;;;5033633;28;21180;-65
2023/07/22 11:46:26;;;;;;;3.17;2.40;;;25.90;81.70;;;;;;5033764;28;20493;-65
2023/07/22 11:48:53;;;;;;;2.90;2.20;;;25.70;81.50;;;;;;5033671;28;20458;-65
2023/07/22 11:51:22;;;;;;;2.33;2.17;;;25.50;81.00;;;;;;5033516;28;20455;-64
2023/07/22 11:53:50;;;;;;;5.07;2.60;;;25.40;80.70;;;;;;5033386;28;20802;-65
2023/07/22 11:56:22;;;;;;;3.00;2.23;;;25.50;82.20;;;;;;5033422;28;20486;-64
2023/07/22 11:58:55;;;;;;;3.10;2.20;;;26.00;83.10;;;;;;5033180;28;20447;-64
2023/07/22 12:01:22;;;;;;;2.20;2.00;;;26.40;78.30;;;;;;5033369;28;20454;-64
2023/07/22 12:03:56;;;;;;;2.70;2.17;;;26.40;77.50;;;;;;5033384;28;20467;-63
2023/07/22 12:06:27;;;;;;;4.00;2.40;;;26.80;78.80;;;;;;5033275;28;20532;-64
2023/07/22 12:08:54;;;;;;;3.13;2.17;;;26.60;79.00;;;;;;5033532;28;20463;-64
2023/07/22 12:11:23;;;;;;;2.77;2.10;;;26.30;78.40;;;;;;5033258;28;20453;-64
2023/07/22 12:14:07;;;;;;;4.50;2.57;;;26.20;79.40;;;;;;5033095;28;20603;-64
2023/07/22 12:16:36;;;;;;;3.20;2.27;;;26.00;81.10;;;;;;5032924;28;20949;-64
2023/07/22 12:19:03;;;;;;;3.60;2.30;;;26.60;80.60;;;;;;5033004;28;20534;-63
2023/07/22 12:21:31;;;;;;;3.03;2.20;;;27.30;78.10;;;;;;5032774;28;20537;-64
2023/07/22 12:23:58;;;;;;;2.87;2.03;;;27.90;77.40;;;;;;5033181;28;20525;-64
2023/07/22 12:26:25;;;;;;;2.83;2.13;;;28.60;76.10;;;;;;5032713;28;21089;-64
2023/07/22 12:28:52;;;;;;;3.07;2.10;;;29.10;75.00;;;;;;5032536;28;20996;-64
2023/07/22 12:31:21;;;;;;;3.53;2.40;;;29.50;74.30;;;;;;5032997;28;20450;-65
2023/07/22 12:33:48;;;;;;;3.17;2.33;;;29.70;72.30;;;;;;5033338;28;20474;-64
2023/07/22 12:36:15;;;;;;;2.70;2.20;;;29.20;72.80;;;;;;5032835;28;20481;-64
2023/07/22 12:38:42;;;;;;;6.50;2.93;;;29.20;75.10;;;;;;4999464;28;20465;-64
2023/07/22 12:41:11;;;;;;;3.80;2.40;;;29.40;73.90;;;;;;5033360;28;20458;-64
2023/07/22 12:43:38;;;;;;;3.90;2.40;;;29.70;73.40;;;;;;5033174;28;20795;-64
2023/07/22 12:46:07;;;;;;;2.57;2.10;;;30.00;73.10;;;;;;5021384;28;20490;-64
2023/07/22 12:48:36;;;;;;;2.80;2.10;;;30.30;72.00;;;;;;5013147;28;21032;-64
2023/07/22 12:51:03;;;;;;;2.87;2.17;;;30.60;70.50;;;;;;5013452;28;20459;-65
2023/07/22 12:53:31;;;;;;;2.80;2.20;;;30.30;69.60;;;;;;5013441;28;20774;-64